Radiosonde details



Informationen :

Serial : D26002423
Type : Graw DFM
Frequency : 403.210MHz
Launchsite : Spokane
Nearest town : Newport, US (5.3km)

Altitude (Max) : 36473m at 2026-09-01 07:14:21
Speed (Max) : 91km/h at altitude 12319m

Average speed : 44km/h
Average ascent rate : 6m/s
Average descent rate : -20m/s
Ascent rate (Max) : 12.9m/s
Descent rate (Max): -65.4m/s

First frame :
WB7NNF at 2026-09-01 05:36:52 at altitude 5108m (OG: 5066m)
Last frame :
WB7NNF at 2026-09-01 07:38:07 at altitude 4038m (OG: 3996m)

Flighttime : 2h1m15s
Ascent time : 1h37m29s
Descent time : 23m46s
Uptime : -
Killtimer : -

Distance (Straight line distance): 62km

Distance (Route):


Frames : 332


Measurement :

Temperature : -0.4°C
Humidity : 0%
Pressure : 0hPa


Vertical profile (SkewT) :


Elevation profile :



Receiving stations :


Receiver Frames First received Last received
WB7NNF 332 2026-09-01 05:36:52 2026-09-01 07:38:07

Share per receiver :



All frames :


Receiver Date Latitude Longitude Direction Speed Altitude Climb Temperature Humidity Pressure Voltage Killtimer Uptime BKT XDATA
WB7NNF2026-09-01 07:38:0748.16302-117.1108266°37km/h4038m-13.2m/s-0.4°C0%0hPa0V00:00:0000:00:0000:00:00
WB7NNF2026-09-01 07:37:4648.16213-117.1134268°40km/h4308m-12.7m/s-2.5°C0%0hPa0V00:00:0000:00:0000:00:00
WB7NNF2026-09-01 07:37:0548.15970-117.1175838°33km/h4842m-13.1m/s-5.9°C0%0hPa0V00:00:0000:00:0000:00:00
WB7NNF2026-09-01 07:36:4548.15825-117.1191836°33km/h5119m-13.4m/s-7.9°C0%0hPa0V00:00:0000:00:0000:00:00
WB7NNF2026-09-01 07:36:2348.15668-117.1207331°37km/h5400m-13.5m/s-9.9°C0%0hPa0V00:00:0000:00:0000:00:00
WB7NNF2026-09-01 07:36:0248.15477-117.1222727°42km/h5700m-14.1m/s-11.7°C0%0hPa0V00:00:0000:00:0000:00:00
WB7NNF2026-09-01 07:35:4148.15267-117.1235019°46km/h5976m-13.6m/s-13.1°C0%0hPa0V00:00:0000:00:0000:00:00
WB7NNF2026-09-01 07:35:2148.15026-117.1248421°49km/h6251m-13.2m/s-15.3°C0%0hPa0V00:00:0000:00:0000:00:00
WB7NNF2026-09-01 07:35:0048.14808-117.1262325°44km/h6523m-13.4m/s-17.6°C0%0hPa0V00:00:0000:00:0000:00:00
WB7NNF2026-09-01 07:34:4048.14613-117.1278134°40km/h6804m-13.6m/s-19.8°C0%0hPa0V00:00:0000:00:0000:00:00
WB7NNF2026-09-01 07:34:1948.14434-117.1297339°42km/h7088m-14.1m/s-22.0°C0%0hPa0V00:00:0000:00:0000:00:00
WB7NNF2026-09-01 07:33:5748.14233-117.1320741°49km/h7379m-12.5m/s-24.1°C0%0hPa0V00:00:0000:00:0000:00:00
WB7NNF2026-09-01 07:33:3448.14024-117.1347043°47km/h7644m-12.3m/s-26.2°C0%0hPa0V00:00:0000:00:0000:00:00
WB7NNF2026-09-01 07:33:1448.13827-117.1372942°51km/h7904m-12.9m/s-28.1°C0%0hPa0V00:00:0000:00:0000:00:00
WB7NNF2026-09-01 07:32:5348.13628-117.1397143°53km/h8154m-12.4m/s-30.1°C0%0hPa0V00:00:0000:00:0000:00:00
WB7NNF2026-09-01 07:32:1648.13282-117.1449047°51km/h8609m-12.7m/s-33.5°C0%0hPa0V00:00:0000:00:0000:00:00
WB7NNF2026-09-01 07:31:5448.13056-117.1478338°57km/h8898m-12.8m/s-34.5°C0%0hPa0V00:00:0000:00:0000:00:00
WB7NNF2026-09-01 07:31:3348.12819-117.1500232°55km/h9150m-12.7m/s-36.3°C0%0hPa0V00:00:0000:00:0000:00:00
WB7NNF2026-09-01 07:31:1348.12571-117.1523235°55km/h9415m-13.4m/s-38.6°C0%0hPa0V00:00:0000:00:0000:00:00
WB7NNF2026-09-01 07:30:5248.12328-117.1544731°57km/h9673m-13.0m/s-40.8°C0%0hPa0V00:00:0000:00:0000:00:00
WB7NNF2026-09-01 07:30:3248.12034-117.1566123°68km/h9950m-12.9m/s-42.6°C0%0hPa0V00:00:0000:00:0000:00:00
WB7NNF2026-09-01 07:30:1148.11688-117.1582214°69km/h10224m-13.3m/s-44.9°C0%0hPa0V00:00:0000:00:0000:00:00
WB7NNF2026-09-01 07:29:5048.11341-117.1593512°69km/h10491m-13.9m/s-47.2°C0%0hPa0V00:00:0000:00:0000:00:00
WB7NNF2026-09-01 07:29:3048.10984-117.1604214°68km/h10779m-14.4m/s-49.6°C0%0hPa0V00:00:0000:00:0000:00:00
WB7NNF2026-09-01 07:29:0948.10661-117.1614510°62km/h11058m-14.0m/s-51.7°C0%0hPa0V00:00:0000:00:0000:00:00
WB7NNF2026-09-01 07:28:4948.10319-117.1619964km/h11353m-14.6m/s-53.8°C0%0hPa0V00:00:0000:00:0000:00:00
WB7NNF2026-09-01 07:28:2848.09991-117.1627462km/h11640m-14.5m/s-55.8°C0%0hPa0V00:00:0000:00:0000:00:00
WB7NNF2026-09-01 07:28:0848.09669-117.1636712°60km/h11949m-14.6m/s-57.8°C0%0hPa0V00:00:0000:00:0000:00:00
WB7NNF2026-09-01 07:27:4748.09358-117.16420360°64km/h12251m-15.2m/s-58.4°C0%0hPa0V00:00:0000:00:0000:00:00
WB7NNF2026-09-01 07:27:2748.09011-117.1641368km/h12562m-14.8m/s-59.5°C0%0hPa0V00:00:0000:00:0000:00:00
WB7NNF2026-09-01 07:27:0648.08699-117.1654923°66km/h12862m-14.8m/s-59.4°C0%0hPa0V00:00:0000:00:0000:00:00
WB7NNF2026-09-01 07:26:4648.08408-117.1683242°62km/h13181m-15.8m/s-57.9°C0%0hPa0V00:00:0000:00:0000:00:00
WB7NNF2026-09-01 07:26:2548.08180-117.1709643°53km/h13494m-16.4m/s-55.9°C0%0hPa0V00:00:0000:00:0000:00:00
WB7NNF2026-09-01 07:26:0548.07951-117.1730832°53km/h13835m-16.4m/s-55.7°C0%0hPa0V00:00:0000:00:0000:00:00
WB7NNF2026-09-01 07:25:4448.07730-117.1752336°53km/h14170m-17.1m/s-55.8°C0%0hPa0V00:00:0000:00:0000:00:00
WB7NNF2026-09-01 07:25:2448.07475-117.1779248°58km/h14537m-17.3m/s-56.1°C0%0hPa0V00:00:0000:00:0000:00:00
WB7NNF2026-09-01 07:25:0348.07301-117.1812545°49km/h14897m-18.5m/s-57.0°C0%0hPa0V00:00:0000:00:0000:00:00
WB7NNF2026-09-01 07:24:4348.07086-117.1840535°53km/h15288m-18.9m/s-56.0°C0%0hPa0V00:00:0000:00:0000:00:00
WB7NNF2026-09-01 07:24:2248.06868-117.1869752°62km/h15689m-19.8m/s-56.0°C0%0hPa0V00:00:0000:00:0000:00:00
WB7NNF2026-09-01 07:24:0148.06634-117.1897345°60km/h16079m-19.8m/s-55.4°C0%0hPa0V00:00:0000:00:0000:00:00
WB7NNF2026-09-01 07:23:4148.06441-117.1929956°42km/h16495m-20.1m/s-54.5°C0%0hPa0V00:00:0000:00:0000:00:00
WB7NNF2026-09-01 07:23:2048.06275-117.1949841°47km/h16903m-20.7m/s-52.8°C0%0hPa0V00:00:0000:00:0000:00:00
WB7NNF2026-09-01 07:23:0048.06125-117.1973536°42km/h17345m-21.0m/s-53.7°C0%0hPa0V00:00:0000:00:0000:00:00
WB7NNF2026-09-01 07:22:3948.05937-117.1993036°42km/h17781m-22.8m/s-54.7°C0%0hPa0V00:00:0000:00:0000:00:00
WB7NNF2026-09-01 07:22:1948.05770-117.2007419°35km/h18258m-23.2m/s-53.7°C0%0hPa0V00:00:0000:00:0000:00:00
WB7NNF2026-09-01 07:21:5848.05609-117.2027354°35km/h18735m-24.2m/s-53.5°C0%0hPa0V00:00:0000:00:0000:00:00
WB7NNF2026-09-01 07:21:3848.05472-117.2049561°44km/h19246m-24.9m/s-54.0°C0%0hPa0V00:00:0000:00:0000:00:00
WB7NNF2026-09-01 07:21:1748.05449-117.2071775°16km/h19731m-25.1m/s-52.6°C0%0hPa0V00:00:0000:00:0000:00:00
WB7NNF2026-09-01 07:20:5748.05408-117.2090976°27km/h20256m-24.7m/s-53.3°C0%0hPa0V00:00:0000:00:0000:00:00
WB7NNF2026-09-01 07:20:3648.05412-117.20989264°7km/h20769m-25.8m/s-53.0°C0%0hPa0V00:00:0000:00:0000:00:00
WB7NNF2026-09-01 07:20:1648.05380-117.2097713km/h21308m-25.5m/s-52.8°C0%0hPa0V00:00:0000:00:0000:00:00
WB7NNF2026-09-01 07:19:5548.05296-117.20914321°33km/h21836m-26.0m/s-52.7°C0%0hPa0V00:00:0000:00:0000:00:00
WB7NNF2026-09-01 07:19:3548.05161-117.2084315°20km/h22407m-27.4m/s-52.1°C0%0hPa0V00:00:0000:00:0000:00:00
WB7NNF2026-09-01 07:19:1448.05101-117.2086926°20km/h23004m-28.5m/s-52.9°C0%0hPa0V00:00:0000:00:0000:00:00
WB7NNF2026-09-01 07:18:5348.05008-117.2094227°16km/h23593m-30.5m/s-52.2°C0%0hPa0V00:00:0000:00:0000:00:00
WB7NNF2026-09-01 07:18:3348.04939-117.2111976°24km/h24250m-33.2m/s-51.7°C0%0hPa0V00:00:0000:00:0000:00:00
WB7NNF2026-09-01 07:18:1248.04964-117.21247189°20km/h24936m-36.5m/s-49.5°C0%0hPa0V00:00:0000:00:0000:00:00
WB7NNF2026-09-01 07:17:5248.05055-117.21161307°7km/h25693m-37.7m/s-49.2°C0%0hPa0V00:00:0000:00:0000:00:00
WB7NNF2026-09-01 07:17:3048.05068-117.21144307°9km/h26451m-37.9m/s-46.9°C0%0hPa0V00:00:0000:00:0000:00:00
WB7NNF2026-09-01 07:17:0748.04964-117.21044341°24km/h27458m-44.5m/s-46.4°C0%0hPa0V00:00:0000:00:0000:00:00
WB7NNF2026-09-01 07:16:4548.04897-117.2110775°20km/h28441m-48.0m/s-45.9°C0%0hPa0V00:00:0000:00:0000:00:00
WB7NNF2026-09-01 07:16:0448.04968-117.2127263°5km/h30518m-56.7m/s-44.1°C0%0hPa0V00:00:0000:00:0000:00:00
WB7NNF2026-09-01 07:15:4348.04949-117.21319178°18km/h31664m-55.6m/s-44.1°C0%0hPa0V00:00:0000:00:0000:00:00
WB7NNF2026-09-01 07:15:2348.04975-117.2137476°13km/h32849m-62.1m/s-43.5°C0%0hPa0V00:00:0000:00:0000:00:00
WB7NNF2026-09-01 07:14:4248.05099-117.21590138°42km/h35443m-65.4m/s-34.7°C0%0hPa0V00:00:0000:00:0000:00:00
WB7NNF2026-09-01 07:14:2148.05219-117.21808130°29km/h36473m-33.2m/s-33.7°C0%0hPa0V00:00:0000:00:0000:00:00
WB7NNF2026-09-01 07:14:0048.05337-117.21993134°46km/h36389m6.5m/s-34.5°C0%0hPa0V00:00:0000:00:0000:00:00
WB7NNF2026-09-01 07:13:4048.05456-117.22216111°26km/h36264m5.5m/s-35.9°C0%0hPa0V00:00:0000:00:0000:00:00
WB7NNF2026-09-01 07:13:1948.05542-117.2245067°24km/h36145m5.1m/s-36.5°C0%0hPa0V00:00:0000:00:0000:00:00
WB7NNF2026-09-01 07:12:5948.05623-117.2275398°37km/h36020m6.1m/s-36.5°C0%0hPa0V00:00:0000:00:0000:00:00
WB7NNF2026-09-01 07:12:3848.05703-117.22957112°40km/h35901m6.3m/s-36.7°C0%0hPa0V00:00:0000:00:0000:00:00
WB7NNF2026-09-01 07:12:1848.05805-117.23168142°46km/h35777m5.6m/s-36.3°C0%0hPa0V00:00:0000:00:0000:00:00
WB7NNF2026-09-01 07:11:5748.05893-117.23367150°37km/h35658m5.3m/s-36.2°C0%0hPa0V00:00:0000:00:0000:00:00
WB7NNF2026-09-01 07:11:3748.05952-117.2363181°24km/h35529m5.8m/s-36.2°C0%0hPa0V00:00:0000:00:0000:00:00
WB7NNF2026-09-01 07:11:1548.05984-117.2395082°40km/h35403m5.7m/s-36.9°C0%0hPa0V00:00:0000:00:0000:00:00
WB7NNF2026-09-01 07:10:5448.05970-117.2418355°49km/h35268m4.3m/s-36.7°C0%0hPa0V00:00:0000:00:0000:00:00
WB7NNF2026-09-01 07:10:3348.05930-117.24362110°15km/h35136m7.5m/s-37.2°C0%0hPa0V00:00:0000:00:0000:00:00
WB7NNF2026-09-01 07:10:1348.05897-117.24429181°15km/h35001m4.7m/s-38.0°C0%0hPa0V00:00:0000:00:0000:00:00
WB7NNF2026-09-01 07:09:5248.05869-117.24425176°9km/h34872m7.0m/s-38.2°C0%0hPa0V00:00:0000:00:0000:00:00
WB7NNF2026-09-01 07:09:3248.05903-117.24368227°22km/h34734m4.4m/s-37.8°C0%0hPa0V00:00:0000:00:0000:00:00
WB7NNF2026-09-01 07:09:1148.05928-117.24273333°16km/h34601m7.9m/s-37.5°C0%0hPa0V00:00:0000:00:0000:00:00
WB7NNF2026-09-01 07:08:5148.05991-117.24168217°15km/h34472m2.8m/s-36.8°C0%0hPa0V00:00:0000:00:0000:00:00
WB7NNF2026-09-01 07:08:3048.06133-117.24084186°58km/h34337m3.6m/s-37.1°C0%0hPa0V00:00:0000:00:0000:00:00
WB7NNF2026-09-01 07:08:0948.06295-117.24084186°44km/h34224m5.3m/s-37.9°C0%0hPa0V00:00:0000:00:0000:00:00
WB7NNF2026-09-01 07:07:4948.06408-117.24109338°15km/h34109m12.3m/s-39.3°C0%0hPa0V00:00:0000:00:0000:00:00
WB7NNF2026-09-01 07:07:2748.06485-117.24151135°18km/h33981m4.8m/s-39.5°C0%0hPa0V00:00:0000:00:0000:00:00
WB7NNF2026-09-01 07:07:0648.06630-117.24296149°40km/h33852m2.5m/s-39.8°C0%0hPa0V00:00:0000:00:0000:00:00
WB7NNF2026-09-01 07:06:4548.06692-117.2445661°38km/h33725m5.3m/s-39.5°C0%0hPa0V00:00:0000:00:0000:00:00
WB7NNF2026-09-01 07:06:2548.06730-117.2466280°37km/h33592m5.9m/s-41.4°C0%0hPa0V00:00:0000:00:0000:00:00
WB7NNF2026-09-01 07:06:0448.06708-117.2480670°55km/h33466m3.2m/s-42.5°C0%0hPa0V00:00:0000:00:0000:00:00
WB7NNF2026-09-01 07:05:4448.06662-117.2490437°46km/h33333m6.0m/s-43.5°C0%0hPa0V00:00:0000:00:0000:00:00
WB7NNF2026-09-01 07:05:2248.06627-117.24932280°38km/h33195m2.1m/s-43.6°C0%0hPa0V00:00:0000:00:0000:00:00
WB7NNF2026-09-01 07:04:5948.06628-117.2507688°18km/h33048m6.2m/s-44.4°C0%0hPa0V00:00:0000:00:0000:00:00
WB7NNF2026-09-01 07:04:3948.06601-117.25142343°11km/h32905m5.3m/s-44.9°C0%0hPa0V00:00:0000:00:0000:00:00
WB7NNF2026-09-01 07:04:1848.06578-117.2517134°29km/h32772m12.4m/s-44.9°C0%0hPa0V00:00:0000:00:0000:00:00
WB7NNF2026-09-01 07:03:5848.06587-117.252120km/h32646m4.5m/s-44.6°C0%0hPa0V00:00:0000:00:0000:00:00
WB7NNF2026-09-01 07:03:3748.06648-117.25214197°26km/h32505m5.2m/s-44.8°C0%0hPa0V00:00:0000:00:0000:00:00
WB7NNF2026-09-01 07:03:1548.06745-117.25242196°11km/h32369m7.6m/s-44.7°C0%0hPa0V00:00:0000:00:0000:00:00
WB7NNF2026-09-01 07:02:5448.06843-117.25295144°49km/h32235m1.9m/s-44.8°C0%0hPa0V00:00:0000:00:0000:00:00
WB7NNF2026-09-01 07:02:3448.06949-117.25348252°51km/h32090m4.4m/s-44.5°C0%0hPa0V00:00:0000:00:0000:00:00
WB7NNF2026-09-01 07:02:1348.07016-117.25384110°29km/h31949m6.8m/s-44.7°C0%0hPa0V00:00:0000:00:0000:00:00
WB7NNF2026-09-01 07:01:5148.07067-117.25457223°22km/h31815m7.6m/s-44.9°C0%0hPa0V00:00:0000:00:0000:00:00
WB7NNF2026-09-01 07:01:3048.07136-117.25510177°18km/h31673m2.8m/s-45.0°C0%0hPa0V00:00:0000:00:0000:00:00
WB7NNF2026-09-01 07:01:0948.07140-117.2556778°44km/h31529m9.5m/s-45.0°C0%0hPa0V00:00:0000:00:0000:00:00
WB7NNF2026-09-01 07:00:4948.07130-117.25655107°33km/h31393m12.3m/s-44.9°C0%0hPa0V00:00:0000:00:0000:00:00
WB7NNF2026-09-01 07:00:2748.07092-117.2570919°18km/h31242m5.6m/s-44.9°C0%0hPa0V00:00:0000:00:0000:00:00
WB7NNF2026-09-01 07:00:0648.07020-117.2569219°35km/h31121m-1.3m/s-45.0°C0%0hPa0V00:00:0000:00:0000:00:00
WB7NNF2026-09-01 06:59:4448.06891-117.25564328°37km/h30972m6.9m/s-45.3°C0%0hPa0V00:00:0000:00:0000:00:00
WB7NNF2026-09-01 06:59:2348.06817-117.25442359°49km/h30838m-0.8m/s-45.0°C0%0hPa0V00:00:0000:00:0000:00:00
WB7NNF2026-09-01 06:59:0148.06837-117.2537740°49km/h30700m5.0m/s-44.9°C0%0hPa0V00:00:0000:00:0000:00:00
WB7NNF2026-09-01 06:58:4048.06902-117.25377230°40km/h30566m6.9m/s-44.9°C0%0hPa0V00:00:0000:00:0000:00:00
WB7NNF2026-09-01 06:58:2048.06969-117.2537846°15km/h30432m5.0m/s-45.1°C0%0hPa0V00:00:0000:00:0000:00:00
WB7NNF2026-09-01 06:57:5948.06990-117.25340227°22km/h30297m6.7m/s-44.9°C0%0hPa0V00:00:0000:00:0000:00:00
WB7NNF2026-09-01 06:57:3748.07025-117.25350224°5km/h30165m0.6m/s-45.4°C0%0hPa0V00:00:0000:00:0000:00:00
WB7NNF2026-09-01 06:57:1548.07121-117.25322108°27km/h30013m0.6m/s-45.3°C0%0hPa0V00:00:0000:00:0000:00:00
WB7NNF2026-09-01 06:56:5448.07204-117.2543986°49km/h29868m-1.5m/s-45.0°C0%0hPa0V00:00:0000:00:0000:00:00
WB7NNF2026-09-01 06:56:3548.07247-117.2564577°51km/h29726m12.9m/s-45.3°C0%0hPa0V00:00:0000:00:0000:00:00
WB7NNF2026-09-01 06:56:1348.07260-117.25877124°24km/h29584m7.3m/s-45.6°C0%0hPa0V00:00:0000:00:0000:00:00
WB7NNF2026-09-01 06:55:5348.07314-117.2606478°44km/h29449m10.2m/s-44.8°C0%0hPa0V00:00:0000:00:0000:00:00
WB7NNF2026-09-01 06:55:3248.07353-117.26245132°33km/h29328m4.0m/s-43.9°C0%0hPa0V00:00:0000:00:0000:00:00
WB7NNF2026-09-01 06:55:1148.07396-117.2641994°24km/h29196m0.8m/s-43.6°C0%0hPa0V00:00:0000:00:0000:00:00
WB7NNF2026-09-01 06:54:5148.07511-117.26530165°33km/h29067m5.9m/s-44.4°C0%0hPa0V00:00:0000:00:0000:00:00
WB7NNF2026-09-01 06:54:3048.07598-117.26676118°47km/h28940m8.6m/s-44.3°C0%0hPa0V00:00:0000:00:0000:00:00
WB7NNF2026-09-01 06:54:0848.07678-117.2688487°58km/h28808m10.1m/s-43.9°C0%0hPa0V00:00:0000:00:0000:00:00
WB7NNF2026-09-01 06:53:4748.07701-117.2712994°69km/h28677m12.7m/s-43.9°C0%0hPa0V00:00:0000:00:0000:00:00
WB7NNF2026-09-01 06:53:2548.07671-117.27435100°60km/h28541m3.6m/s-44.7°C0%0hPa0V00:00:0000:00:0000:00:00
WB7NNF2026-09-01 06:53:0448.07614-117.27654246°11km/h28409m10.6m/s-45.6°C0%0hPa0V00:00:0000:00:0000:00:00
WB7NNF2026-09-01 06:52:4248.07571-117.2777352°38km/h28276m-2.9m/s-45.8°C0%0hPa0V00:00:0000:00:0000:00:00
WB7NNF2026-09-01 06:52:2148.07538-117.2785367°31km/h28144m0.9m/s-46.5°C0%0hPa0V00:00:0000:00:0000:00:00
WB7NNF2026-09-01 06:52:0148.07456-117.2794933°40km/h28023m9.5m/s-47.0°C0%0hPa0V00:00:0000:00:0000:00:00
WB7NNF2026-09-01 06:51:3948.07323-117.2800837°16km/h27893m8.2m/s-47.7°C0%0hPa0V00:00:0000:00:0000:00:00
WB7NNF2026-09-01 06:51:1848.07201-117.27922317°11km/h27758m-0.0m/s-47.8°C0%0hPa0V00:00:0000:00:0000:00:00
WB7NNF2026-09-01 06:50:5748.07092-117.2780332°5km/h27634m1.6m/s-47.3°C0%0hPa0V00:00:0000:00:0000:00:00
WB7NNF2026-09-01 06:50:3748.06993-117.27705346°53km/h27505m10.3m/s-47.7°C0%0hPa0V00:00:0000:00:0000:00:00
WB7NNF2026-09-01 06:50:1648.06904-117.27582295°64km/h27378m6.4m/s-48.5°C0%0hPa0V00:00:0000:00:0000:00:00
WB7NNF2026-09-01 06:49:5648.06801-117.27452333°13km/h27254m6.3m/s-49.0°C0%0hPa0V00:00:0000:00:0000:00:00
WB7NNF2026-09-01 06:49:3548.06747-117.27329256°29km/h27129m-0.4m/s-49.1°C0%0hPa0V00:00:0000:00:0000:00:00
WB7NNF2026-09-01 06:49:1548.06709-117.2726355km/h27002m3.6m/s-48.6°C0%0hPa0V00:00:0000:00:0000:00:00
WB7NNF2026-09-01 06:48:5448.06614-117.27199332°35km/h26879m7.8m/s-48.1°C0%0hPa0V00:00:0000:00:0000:00:00
WB7NNF2026-09-01 06:48:3248.06571-117.27110264°18km/h26750m8.3m/s-48.6°C0%0hPa0V00:00:0000:00:0000:00:00
WB7NNF2026-09-01 06:48:1148.06553-117.27016331°9km/h26626m1.5m/s-48.6°C0%0hPa0V00:00:0000:00:0000:00:00
WB7NNF2026-09-01 06:47:4948.06581-117.26929273°15km/h26500m10.6m/s-48.8°C0%0hPa0V00:00:0000:00:0000:00:00
WB7NNF2026-09-01 06:47:2948.06645-117.26884210°60km/h26377m2.8m/s-49.1°C0%0hPa0V00:00:0000:00:0000:00:00
WB7NNF2026-09-01 06:47:0848.06690-117.2694580°37km/h26254m6.9m/s-49.1°C0%0hPa0V00:00:0000:00:0000:00:00
WB7NNF2026-09-01 06:46:4648.06671-117.2703833°18km/h26130m12.1m/s-50.1°C0%0hPa0V00:00:0000:00:0000:00:00
WB7NNF2026-09-01 06:46:2648.06614-117.27021273°33km/h26000m-0.2m/s-50.1°C0%0hPa0V00:00:0000:00:0000:00:00
WB7NNF2026-09-01 06:45:4348.06561-117.26827296°18km/h25732m2.9m/s-49.8°C0%0hPa0V00:00:0000:00:0000:00:00
WB7NNF2026-09-01 06:45:2148.06590-117.26697287°31km/h25609m8.8m/s-49.3°C0%0hPa0V00:00:0000:00:0000:00:00
WB7NNF2026-09-01 06:45:0148.06684-117.26571243°68km/h25481m8.9m/s-49.4°C0%0hPa0V00:00:0000:00:0000:00:00
WB7NNF2026-09-01 06:44:4048.06818-117.26462228°47km/h25359m2.2m/s-49.6°C0%0hPa0V00:00:0000:00:0000:00:00
WB7NNF2026-09-01 06:44:1948.06969-117.26415190°64km/h25238m10.2m/s-49.6°C0%0hPa0V00:00:0000:00:0000:00:00
WB7NNF2026-09-01 06:42:3548.07126-117.2696638°33km/h24642m10.1m/s-52.1°C0%0hPa0V00:00:0000:00:0000:00:00
WB7NNF2026-09-01 06:42:1548.07076-117.27084158°38km/h24515m5.4m/s-52.2°C0%0hPa0V00:00:0000:00:0000:00:00
WB7NNF2026-09-01 06:41:5448.07029-117.2720020°35km/h24394m9.9m/s-52.1°C0%0hPa0V00:00:0000:00:0000:00:00
WB7NNF2026-09-01 06:41:3448.06966-117.27260111°15km/h24269m5.4m/s-52.9°C0%0hPa0V00:00:0000:00:0000:00:00
WB7NNF2026-09-01 06:41:1348.06934-117.2739976°64km/h24140m6.8m/s-52.9°C0%0hPa0V00:00:0000:00:0000:00:00
WB7NNF2026-09-01 06:40:5248.06868-117.2752035°64km/h24017m6.8m/s-53.1°C0%0hPa0V00:00:0000:00:0000:00:00
WB7NNF2026-09-01 06:40:3248.06731-117.27618358°42km/h23893m0.7m/s-53.5°C0%0hPa0V00:00:0000:00:0000:00:00
WB7NNF2026-09-01 06:40:1048.06645-117.2762256°33km/h23759m8.5m/s-52.6°C0%0hPa0V00:00:0000:00:0000:00:00
WB7NNF2026-09-01 06:39:4948.06594-117.27595336°29km/h23640m4.8m/s-52.4°C0%0hPa0V00:00:0000:00:0000:00:00
WB7NNF2026-09-01 06:39:2748.06562-117.2756999°29km/h23513m1.2m/s-52.5°C0%0hPa0V00:00:0000:00:0000:00:00
WB7NNF2026-09-01 06:39:0648.06467-117.27580272°44km/h23396m4.8m/s-52.7°C0%0hPa0V00:00:0000:00:0000:00:00
WB7NNF2026-09-01 06:38:4648.06426-117.2762454°42km/h23278m8.2m/s-53.0°C0%0hPa0V00:00:0000:00:0000:00:00
WB7NNF2026-09-01 06:38:2548.06334-117.27680340°46km/h23166m-0.2m/s-53.2°C0%0hPa0V00:00:0000:00:0000:00:00
WB7NNF2026-09-01 06:38:0348.06250-117.2774862°46km/h23045m-0.2m/s-53.4°C0%0hPa0V00:00:0000:00:0000:00:00
WB7NNF2026-09-01 06:37:4248.06178-117.27756317°33km/h22937m8.6m/s-53.0°C0%0hPa0V00:00:0000:00:0000:00:00
WB7NNF2026-09-01 06:37:2248.06183-117.27724106°24km/h22819m3.8m/s-53.1°C0%0hPa0V00:00:0000:00:0000:00:00
WB7NNF2026-09-01 06:37:0148.06149-117.27769343°49km/h22695m2.6m/s-52.5°C0%0hPa0V00:00:0000:00:0000:00:00
WB7NNF2026-09-01 06:36:4048.06113-117.2783996°16km/h22580m12.0m/s-52.4°C0%0hPa0V00:00:0000:00:0000:00:00
WB7NNF2026-09-01 06:36:2048.06039-117.27905324°33km/h22462m8.3m/s-52.7°C0%0hPa0V00:00:0000:00:0000:00:00
WB7NNF2026-09-01 06:35:5848.05940-117.2789530°31km/h22346m6.6m/s-52.6°C0%0hPa0V00:00:0000:00:0000:00:00
WB7NNF2026-09-01 06:35:3748.05768-117.27836312°42km/h22232m1.7m/s-53.1°C0%0hPa0V00:00:0000:00:0000:00:00
WB7NNF2026-09-01 06:35:1648.05637-117.2773520°46km/h22116m-0.4m/s-52.9°C0%0hPa0V00:00:0000:00:0000:00:00
WB7NNF2026-09-01 06:34:5648.05540-117.27586259°40km/h22004m9.1m/s-53.0°C0%0hPa0V00:00:0000:00:0000:00:00
WB7NNF2026-09-01 06:34:3448.05488-117.2748415°47km/h21882m5.5m/s-52.8°C0%0hPa0V00:00:0000:00:0000:00:00
WB7NNF2026-09-01 06:34:1348.05440-117.27401302°33km/h21779m3.2m/s-52.8°C0%0hPa0V00:00:0000:00:0000:00:00
WB7NNF2026-09-01 06:33:5248.05419-117.2737549°38km/h21660m4.2m/s-52.7°C0%0hPa0V00:00:0000:00:0000:00:00
WB7NNF2026-09-01 06:33:3248.05354-117.27419105°20km/h21541m0.3m/s-52.7°C0%0hPa0V00:00:0000:00:0000:00:00
WB7NNF2026-09-01 06:33:1148.05280-117.2749728°26km/h21437m8.6m/s-52.8°C0%0hPa0V00:00:0000:00:0000:00:00
WB7NNF2026-09-01 06:32:5148.05204-117.27442343°33km/h21330m2.0m/s-52.7°C0%0hPa0V00:00:0000:00:0000:00:00
WB7NNF2026-09-01 06:32:3148.05180-117.27399185°40km/h21211m4.0m/s-52.4°C0%0hPa0V00:00:0000:00:0000:00:00
WB7NNF2026-09-01 06:32:1048.05187-117.2741616km/h21101m9.8m/s-52.3°C0%0hPa0V00:00:0000:00:0000:00:00
WB7NNF2026-09-01 06:31:4948.05165-117.27461115°20km/h20989m9.1m/s-53.5°C0%0hPa0V00:00:0000:00:0000:00:00
WB7NNF2026-09-01 06:31:2748.05112-117.27534215°27km/h20870m7.4m/s-53.9°C0%0hPa0V00:00:0000:00:0000:00:00
WB7NNF2026-09-01 06:31:0648.05141-117.27644121°33km/h20774m3.3m/s-53.7°C0%0hPa0V00:00:0000:00:0000:00:00
WB7NNF2026-09-01 06:30:4648.05150-117.27788150°9km/h20659m5.3m/s-53.5°C0%0hPa0V00:00:0000:00:0000:00:00
WB7NNF2026-09-01 06:30:2548.05172-117.27940115°49km/h20561m1.6m/s-53.0°C0%0hPa0V00:00:0000:00:0000:00:00
WB7NNF2026-09-01 06:30:0548.05170-117.28100318°24km/h20451m8.2m/s-52.6°C0%0hPa0V00:00:0000:00:0000:00:00
WB7NNF2026-09-01 06:29:4448.05162-117.2824384°11km/h20343m5.5m/s-53.2°C0%0hPa0V00:00:0000:00:0000:00:00
WB7NNF2026-09-01 06:29:2448.05121-117.28481135°26km/h20234m5.9m/s-53.3°C0%0hPa0V00:00:0000:00:0000:00:00
WB7NNF2026-09-01 06:29:0348.05070-117.2867417°35km/h20129m0.5m/s-53.1°C0%0hPa0V00:00:0000:00:0000:00:00
WB7NNF2026-09-01 06:28:4348.05006-117.2893290°33km/h20021m2.7m/s-53.3°C0%0hPa0V00:00:0000:00:0000:00:00
WB7NNF2026-09-01 06:28:2248.04912-117.2912432°55km/h19913m5.7m/s-53.2°C0%0hPa0V00:00:0000:00:0000:00:00
WB7NNF2026-09-01 06:27:4148.04833-117.2945679°27km/h19717m9.4m/s-52.8°C0%0hPa0V00:00:0000:00:0000:00:00
WB7NNF2026-09-01 06:27:2148.04832-117.2970188°66km/h19621m1.4m/s-53.3°C0%0hPa0V00:00:0000:00:0000:00:00
WB7NNF2026-09-01 06:26:3848.04640-117.3021913°46km/h19435m5.3m/s-54.9°C0%0hPa0V00:00:0000:00:0000:00:00
WB7NNF2026-09-01 06:26:1748.04395-117.3043769°51km/h19325m5.5m/s-55.2°C0%0hPa0V00:00:0000:00:0000:00:00
WB7NNF2026-09-01 06:25:5548.04170-117.3058519°69km/h19223m2.6m/s-54.4°C0%0hPa0V00:00:0000:00:0000:00:00
WB7NNF2026-09-01 06:25:3448.03980-117.30723361°55km/h19117m10.7m/s-53.5°C0%0hPa0V00:00:0000:00:0000:00:00
WB7NNF2026-09-01 06:25:1448.03798-117.3082324°13km/h19009m1.9m/s-53.4°C0%0hPa0V00:00:0000:00:0000:00:00
WB7NNF2026-09-01 06:24:5348.03673-117.3089415°38km/h18903m6.5m/s-53.9°C0%0hPa0V00:00:0000:00:0000:00:00
WB7NNF2026-09-01 06:24:3348.03545-117.3107262°22km/h18791m7.4m/s-54.0°C0%0hPa0V00:00:0000:00:0000:00:00
WB7NNF2026-09-01 06:24:1248.03387-117.3128236°55km/h18673m7.1m/s-54.7°C0%0hPa0V00:00:0000:00:0000:00:00
WB7NNF2026-09-01 06:23:5148.03196-117.3150958°27km/h18555m5.1m/s-54.7°C0%0hPa0V00:00:0000:00:0000:00:00
WB7NNF2026-09-01 06:23:3148.02993-117.3166659°53km/h18435m5.7m/s-54.1°C0%0hPa0V00:00:0000:00:0000:00:00
WB7NNF2026-09-01 06:23:1048.02845-117.3177327km/h18326m6.3m/s-53.9°C0%0hPa0V00:00:0000:00:0000:00:00
WB7NNF2026-09-01 06:22:5048.02710-117.3194372°38km/h18221m6.0m/s-54.2°C0%0hPa0V00:00:0000:00:0000:00:00
WB7NNF2026-09-01 06:22:2948.02575-117.3212356°42km/h18116m8.6m/s-54.0°C0%0hPa0V00:00:0000:00:0000:00:00
WB7NNF2026-09-01 06:22:0748.02428-117.3233612°40km/h18014m4.3m/s-53.7°C0%0hPa0V00:00:0000:00:0000:00:00
WB7NNF2026-09-01 06:21:4548.02242-117.3255130°46km/h17894m7.2m/s-53.6°C0%0hPa0V00:00:0000:00:0000:00:00
WB7NNF2026-09-01 06:21:2448.02065-117.3282341°40km/h17781m6.0m/s-53.8°C0%0hPa0V00:00:0000:00:0000:00:00
WB7NNF2026-09-01 06:21:0348.01858-117.3305631°53km/h17673m6.1m/s-54.1°C0%0hPa0V00:00:0000:00:0000:00:00
WB7NNF2026-09-01 06:20:4348.01663-117.3326925°38km/h17571m5.9m/s-54.7°C0%0hPa0V00:00:0000:00:0000:00:00
WB7NNF2026-09-01 06:20:2148.01459-117.3353014°42km/h17452m4.0m/s-54.5°C0%0hPa0V00:00:0000:00:0000:00:00
WB7NNF2026-09-01 06:19:5848.01311-117.3381362°33km/h17336m3.8m/s-54.6°C0%0hPa0V00:00:0000:00:0000:00:00
WB7NNF2026-09-01 06:19:3848.01150-117.3410070°35km/h17233m5.5m/s-54.1°C0%0hPa0V00:00:0000:00:0000:00:00
WB7NNF2026-09-01 06:19:1748.00988-117.3432346km/h17135m3.3m/s-54.1°C0%0hPa0V00:00:0000:00:0000:00:00
WB7NNF2026-09-01 06:18:5748.00826-117.3455550°16km/h17035m6.0m/s-54.7°C0%0hPa0V00:00:0000:00:0000:00:00
WB7NNF2026-09-01 06:18:3648.00650-117.3473334°57km/h16937m6.1m/s-55.0°C0%0hPa0V00:00:0000:00:0000:00:00
WB7NNF2026-09-01 06:18:1548.00449-117.3488527°38km/h16833m5.4m/s-55.1°C0%0hPa0V00:00:0000:00:0000:00:00
WB7NNF2026-09-01 06:17:5548.00275-117.3505243°49km/h16729m6.4m/s-54.4°C0%0hPa0V00:00:0000:00:0000:00:00
WB7NNF2026-09-01 06:17:3448.00115-117.3523372°33km/h16632m5.9m/s-54.9°C0%0hPa0V00:00:0000:00:0000:00:00
WB7NNF2026-09-01 06:17:1447.99940-117.3546649°68km/h16530m7.2m/s-55.4°C0%0hPa0V00:00:0000:00:0000:00:00
WB7NNF2026-09-01 06:16:5347.99766-117.3574766°49km/h16435m4.3m/s-56.2°C0%0hPa0V00:00:0000:00:0000:00:00
WB7NNF2026-09-01 06:16:3347.99566-117.3604936°64km/h16339m4.8m/s-56.1°C0%0hPa0V00:00:0000:00:0000:00:00
WB7NNF2026-09-01 06:16:1247.99351-117.3634960°68km/h16242m4.4m/s-55.6°C0%0hPa0V00:00:0000:00:0000:00:00
WB7NNF2026-09-01 06:15:5247.99141-117.3663331°69km/h16141m5.2m/s-55.4°C0%0hPa0V00:00:0000:00:0000:00:00
WB7NNF2026-09-01 06:15:3147.98935-117.3691039°35km/h16042m4.1m/s-55.4°C0%0hPa0V00:00:0000:00:0000:00:00
WB7NNF2026-09-01 06:15:1147.98682-117.3713440°47km/h15935m6.7m/s-55.8°C0%0hPa0V00:00:0000:00:0000:00:00
WB7NNF2026-09-01 06:14:4947.98477-117.3731425°58km/h15833m5.3m/s-55.9°C0%0hPa0V00:00:0000:00:0000:00:00
WB7NNF2026-09-01 06:14:2847.98281-117.3752717°37km/h15732m4.8m/s-56.1°C0%0hPa0V00:00:0000:00:0000:00:00
WB7NNF2026-09-01 06:14:0847.98075-117.3774531°33km/h15633m4.0m/s-55.7°C0%0hPa0V00:00:0000:00:0000:00:00
WB7NNF2026-09-01 06:13:2647.97639-117.3814811°44km/h15440m6.5m/s-55.1°C0%0hPa0V00:00:0000:00:0000:00:00
WB7NNF2026-09-01 06:13:0647.97427-117.3835755°42km/h15340m7.3m/s-56.0°C0%0hPa0V00:00:0000:00:0000:00:00
WB7NNF2026-09-01 06:12:2547.96962-117.3881024°53km/h15146m5.1m/s-55.5°C0%0hPa0V00:00:0000:00:0000:00:00
WB7NNF2026-09-01 06:12:0447.96742-117.3907751°27km/h15045m5.0m/s-55.1°C0%0hPa0V00:00:0000:00:0000:00:00
WB7NNF2026-09-01 06:11:4347.96549-117.3933750°73km/h14949m5.9m/s-55.3°C0%0hPa0V00:00:0000:00:0000:00:00
WB7NNF2026-09-01 06:11:2347.96349-117.3964952°57km/h14850m5.1m/s-55.6°C0%0hPa0V00:00:0000:00:0000:00:00
WB7NNF2026-09-01 06:11:0247.96171-117.3992323°62km/h14758m4.7m/s-55.7°C0%0hPa0V00:00:0000:00:0000:00:00
WB7NNF2026-09-01 06:10:4247.95962-117.4026759°42km/h14662m6.2m/s-55.9°C0%0hPa0V00:00:0000:00:0000:00:00
WB7NNF2026-09-01 06:10:2047.95741-117.4057850°75km/h14572m6.2m/s-55.8°C0%0hPa0V00:00:0000:00:0000:00:00
WB7NNF2026-09-01 06:09:5747.95477-117.4093137°78km/h14467m2.7m/s-55.3°C0%0hPa0V00:00:0000:00:0000:00:00
WB7NNF2026-09-01 06:09:3747.95234-117.4123036°55km/h14378m5.8m/s-55.5°C0%0hPa0V00:00:0000:00:0000:00:00
WB7NNF2026-09-01 06:09:1647.94976-117.4145533°62km/h14289m5.4m/s-55.1°C0%0hPa0V00:00:0000:00:0000:00:00
WB7NNF2026-09-01 06:08:5547.94736-117.4163844°69km/h14204m4.6m/s-55.3°C0%0hPa0V00:00:0000:00:0000:00:00
WB7NNF2026-09-01 06:08:3547.94526-117.4188433°58km/h14109m5.6m/s-54.8°C0%0hPa0V00:00:0000:00:0000:00:00
WB7NNF2026-09-01 06:08:1447.94342-117.4215856°35km/h14014m5.0m/s-55.1°C0%0hPa0V00:00:0000:00:0000:00:00
WB7NNF2026-09-01 06:07:5447.94155-117.4243353°60km/h13913m4.8m/s-54.8°C0%0hPa0V00:00:0000:00:0000:00:00
WB7NNF2026-09-01 06:07:3347.93989-117.4267940°64km/h13814m5.3m/s-55.0°C0%0hPa0V00:00:0000:00:0000:00:00
WB7NNF2026-09-01 06:07:1347.93802-117.4293631°44km/h13704m5.5m/s-55.2°C0%0hPa0V00:00:0000:00:0000:00:00
WB7NNF2026-09-01 06:06:5247.93635-117.4319870°53km/h13600m3.3m/s-55.4°C0%0hPa0V00:00:0000:00:0000:00:00
WB7NNF2026-09-01 06:06:3247.93438-117.4351749°64km/h13495m5.8m/s-56.1°C0%0hPa0V00:00:0000:00:0000:00:00
WB7NNF2026-09-01 06:06:1147.93219-117.4385149°53km/h13395m6.1m/s-57.0°C0%0hPa0V00:00:0000:00:0000:00:00
WB7NNF2026-09-01 06:05:3047.92703-117.4448936°64km/h13212m4.9m/s-58.4°C0%0hPa0V00:00:0000:00:0000:00:00
WB7NNF2026-09-01 06:05:1047.92395-117.4478839°71km/h13131m5.1m/s-60.1°C0%0hPa0V00:00:0000:00:0000:00:00
WB7NNF2026-09-01 06:04:4947.92051-117.4503222°82km/h13052m5.1m/s-60.6°C0%0hPa0V00:00:0000:00:0000:00:00
WB7NNF2026-09-01 06:04:2947.91704-117.4522436°73km/h12968m6.7m/s-60.7°C0%0hPa0V00:00:0000:00:0000:00:00
WB7NNF2026-09-01 06:04:0847.91330-117.4544723°62km/h12866m4.7m/s-61.1°C0%0hPa0V00:00:0000:00:0000:00:00
WB7NNF2026-09-01 06:03:4847.90948-117.4559115°84km/h12781m6.1m/s-60.7°C0%0hPa0V00:00:0000:00:0000:00:00
WB7NNF2026-09-01 06:03:2747.90530-117.4571973km/h12685m6.1m/s-60.6°C0%0hPa0V00:00:0000:00:0000:00:00
WB7NNF2026-09-01 06:03:0647.90166-117.4577912°66km/h12594m3.9m/s-60.5°C0%0hPa0V00:00:0000:00:0000:00:00
WB7NNF2026-09-01 06:02:4647.89768-117.4583412°68km/h12507m6.6m/s-60.1°C0%0hPa0V00:00:0000:00:0000:00:00
WB7NNF2026-09-01 06:02:2547.89404-117.45846359°82km/h12413m4.7m/s-59.7°C0%0hPa0V00:00:0000:00:0000:00:00
WB7NNF2026-09-01 06:02:0547.89003-117.45851350°89km/h12319m4.3m/s-58.9°C0%0hPa0V00:00:0000:00:0000:00:00
WB7NNF2026-09-01 06:01:4447.88646-117.4586678km/h12223m5.5m/s-58.5°C0%0hPa0V00:00:0000:00:0000:00:00
WB7NNF2026-09-01 06:01:2447.88265-117.4593114°88km/h12134m5.7m/s-58.0°C0%0hPa0V00:00:0000:00:0000:00:00
WB7NNF2026-09-01 06:00:4347.87560-117.4615614°55km/h11957m2.7m/s-57.3°C0%0hPa0V00:00:0000:00:0000:00:00
WB7NNF2026-09-01 06:00:2247.87223-117.4630423°68km/h11877m4.7m/s-56.8°C0%0hPa0V00:00:0000:00:0000:00:00
WB7NNF2026-09-01 05:59:4147.86567-117.4654819°53km/h11704m4.0m/s-55.7°C0%0hPa0V00:00:0000:00:0000:00:00
WB7NNF2026-09-01 05:59:2147.86217-117.4664510°62km/h11617m5.0m/s-55.4°C0%0hPa0V00:00:0000:00:0000:00:00
WB7NNF2026-09-01 05:59:0047.85849-117.4673549km/h11526m4.8m/s-54.9°C0%0hPa0V00:00:0000:00:0000:00:00
WB7NNF2026-09-01 05:58:3947.85480-117.4683511°73km/h11435m4.5m/s-54.4°C0%0hPa0V00:00:0000:00:0000:00:00
WB7NNF2026-09-01 05:58:1247.85001-117.4693115°60km/h11303m2.7m/s-53.4°C0%0hPa0V00:00:0000:00:0000:00:00
WB7NNF2026-09-01 05:57:5147.84634-117.4701512°75km/h11209m5.9m/s-52.8°C0%0hPa0V00:00:0000:00:0000:00:00
WB7NNF2026-09-01 05:57:3047.84289-117.4711314°64km/h11117m4.8m/s-52.1°C0%0hPa0V00:00:0000:00:0000:00:00
WB7NNF2026-09-01 05:57:1047.83911-117.4725318°86km/h11023m5.8m/s-51.4°C0%0hPa0V00:00:0000:00:0000:00:00
WB7NNF2026-09-01 05:56:4947.83547-117.4736268km/h10934m3.5m/s-50.7°C0%0hPa0V00:00:0000:00:0000:00:00
WB7NNF2026-09-01 05:56:2947.83155-117.4749514°82km/h10841m7.0m/s-49.9°C0%0hPa0V00:00:0000:00:0000:00:00
WB7NNF2026-09-01 05:56:0847.82779-117.4761112°73km/h10752m4.5m/s-49.1°C0%0hPa0V00:00:0000:00:0000:00:00
WB7NNF2026-09-01 05:55:4847.82398-117.4772182km/h10652m5.8m/s-48.3°C0%0hPa0V00:00:0000:00:0000:00:00
WB7NNF2026-09-01 05:55:2747.82005-117.47827361°80km/h10554m3.6m/s-47.5°C0%0hPa0V00:00:0000:00:0000:00:00
WB7NNF2026-09-01 05:55:0747.81651-117.4791780km/h10442m7.1m/s-46.5°C0%0hPa0V00:00:0000:00:0000:00:00
WB7NNF2026-09-01 05:54:4647.81282-117.4802021°71km/h10328m5.2m/s-45.6°C0%0hPa0V00:00:0000:00:0000:00:00
WB7NNF2026-09-01 05:54:2647.80902-117.48173359°62km/h10244m5.8m/s-44.8°C0%0hPa0V00:00:0000:00:0000:00:00
WB7NNF2026-09-01 05:54:0547.80534-117.4832513°82km/h10118m8.2m/s-43.8°C0%0hPa0V00:00:0000:00:0000:00:00
WB7NNF2026-09-01 05:53:4547.80166-117.4854115°84km/h10007m4.3m/s-43.0°C0%0hPa0V00:00:0000:00:0000:00:00
WB7NNF2026-09-01 05:53:2447.79809-117.4874713°66km/h9910m5.1m/s-42.2°C0%0hPa0V00:00:0000:00:0000:00:00
WB7NNF2026-09-01 05:53:0347.79477-117.4892223°58km/h9807m5.9m/s-41.7°C0%0hPa0V00:00:0000:00:0000:00:00
WB7NNF2026-09-01 05:52:4347.79209-117.4914235°64km/h9711m4.7m/s-40.9°C0%0hPa0V00:00:0000:00:0000:00:00
WB7NNF2026-09-01 05:52:2247.78953-117.4934240°53km/h9628m5.0m/s-40.2°C0%0hPa0V00:00:0000:00:0000:00:00
WB7NNF2026-09-01 05:52:0247.78688-117.4955526°51km/h9539m4.0m/s-39.4°C0%0hPa0V00:00:0000:00:0000:00:00
WB7NNF2026-09-01 05:51:4147.78436-117.4977628°64km/h9453m4.8m/s-38.6°C0%0hPa0V00:00:0000:00:0000:00:00
WB7NNF2026-09-01 05:51:2147.78186-117.5000821°64km/h9366m2.7m/s-37.9°C0%0hPa0V00:00:0000:00:0000:00:00
WB7NNF2026-09-01 05:51:0047.77952-117.5022032°69km/h9282m4.9m/s-37.2°C0%0hPa0V00:00:0000:00:0000:00:00
WB7NNF2026-09-01 05:50:4047.77704-117.5043534°68km/h9194m3.6m/s-36.5°C0%0hPa0V00:00:0000:00:0000:00:00
WB7NNF2026-09-01 05:50:1947.77453-117.5064532°40km/h9114m3.9m/s-36.2°C0%0hPa0V00:00:0000:00:0000:00:00
WB7NNF2026-09-01 05:49:5947.77226-117.5089916°47km/h9029m5.4m/s-35.6°C0%0hPa0V00:00:0000:00:0000:00:00
WB7NNF2026-09-01 05:49:3447.76997-117.5118649°38km/h8928m2.3m/s-35.2°C0%0hPa0V00:00:0000:00:0000:00:00
WB7NNF2026-09-01 05:49:1447.76781-117.5142928°46km/h8843m2.9m/s-34.9°C0%0hPa0V00:00:0000:00:0000:00:00
WB7NNF2026-09-01 05:48:5347.76577-117.5166548°53km/h8755m4.8m/s-34.4°C0%0hPa0V00:00:0000:00:0000:00:00
WB7NNF2026-09-01 05:48:3347.76371-117.5188419°42km/h8661m4.5m/s-33.8°C0%0hPa0V00:00:0000:00:0000:00:00
WB7NNF2026-09-01 05:48:1247.76186-117.5207838°49km/h8576m4.2m/s-33.1°C0%0hPa0V00:00:0000:00:0000:00:00
WB7NNF2026-09-01 05:47:5247.75997-117.5229328°64km/h8486m3.7m/s-32.4°C0%0hPa0V00:00:0000:00:0000:00:00
WB7NNF2026-09-01 05:47:3147.75808-117.5248540°35km/h8391m4.0m/s-31.7°C0%0hPa0V00:00:0000:00:0000:00:00
WB7NNF2026-09-01 05:47:1147.75638-117.5265839°53km/h8283m5.2m/s-30.9°C0%0hPa0V00:00:0000:00:0000:00:00
WB7NNF2026-09-01 05:46:5047.75455-117.5285129°58km/h8192m6.7m/s-30.2°C0%0hPa0V00:00:0000:00:0000:00:00
WB7NNF2026-09-01 05:46:3047.75267-117.5305129°51km/h8092m4.5m/s-29.4°C0%0hPa0V00:00:0000:00:0000:00:00
WB7NNF2026-09-01 05:46:1047.75075-117.5324753°55km/h8003m5.0m/s-28.7°C0%0hPa0V00:00:0000:00:0000:00:00
WB7NNF2026-09-01 05:45:4947.74901-117.5343132°55km/h7898m4.5m/s-27.8°C0%0hPa0V00:00:0000:00:0000:00:00
WB7NNF2026-09-01 05:45:2847.74744-117.5361825°51km/h7809m4.4m/s-27.1°C0%0hPa0V00:00:0000:00:0000:00:00
WB7NNF2026-09-01 05:45:0847.74575-117.5381681°26km/h7712m4.4m/s-26.4°C0%0hPa0V00:00:0000:00:0000:00:00
WB7NNF2026-09-01 05:44:4747.74422-117.5402435°57km/h7588m4.3m/s-25.4°C0%0hPa0V00:00:0000:00:0000:00:00
WB7NNF2026-09-01 05:44:2647.74280-117.5421236°44km/h7496m5.7m/s-24.6°C0%0hPa0V00:00:0000:00:0000:00:00
WB7NNF2026-09-01 05:44:0647.74108-117.5440837°64km/h7398m3.2m/s-23.8°C0%0hPa0V00:00:0000:00:0000:00:00
WB7NNF2026-09-01 05:43:3847.73880-117.5465329°46km/h7259m3.4m/s-22.8°C0%0hPa0V00:00:0000:00:0000:00:00
WB7NNF2026-09-01 05:43:1747.73728-117.5483633km/h7162m4.1m/s-22.0°C0%0hPa0V00:00:0000:00:0000:00:00
WB7NNF2026-09-01 05:42:5747.73579-117.5503261°49km/h7057m4.8m/s-21.1°C0%0hPa0V00:00:0000:00:0000:00:00
WB7NNF2026-09-01 05:42:3647.73432-117.5523648°51km/h6972m5.8m/s-20.5°C0%0hPa0V00:00:0000:00:0000:00:00
WB7NNF2026-09-01 05:42:1647.73286-117.5546652°60km/h6874m5.1m/s-19.6°C0%0hPa0V00:00:0000:00:0000:00:00
WB7NNF2026-09-01 05:41:5547.73158-117.5564971°40km/h6767m4.7m/s-18.7°C0%0hPa0V00:00:0000:00:0000:00:00
WB7NNF2026-09-01 05:41:3547.73015-117.5579962°55km/h6657m7.7m/s-17.7°C0%0hPa0V00:00:0000:00:0000:00:00
WB7NNF2026-09-01 05:41:1447.72854-117.55971353°35km/h6538m2.7m/s-16.8°C0%0hPa0V00:00:0000:00:0000:00:00
WB7NNF2026-09-01 05:40:5247.72689-117.5610756°44km/h6422m6.3m/s-15.9°C0%0hPa0V00:00:0000:00:0000:00:00
WB7NNF2026-09-01 05:39:4947.72100-117.5651240km/h6060m5.0m/s-13.4°C0%0hPa0V00:00:0000:00:0000:00:00
WB7NNF2026-09-01 05:39:2847.71893-117.5665918°51km/h5952m4.2m/s-12.7°C0%0hPa0V00:00:0000:00:0000:00:00
WB7NNF2026-09-01 05:39:0647.71704-117.5677354°38km/h5827m7.7m/s-12.4°C0%0hPa0V00:00:0000:00:0000:00:00
WB7NNF2026-09-01 05:38:4547.71528-117.5689359°33km/h5716m4.0m/s-11.8°C0%0hPa0V00:00:0000:00:0000:00:00
WB7NNF2026-09-01 05:38:2547.71338-117.5704013°42km/h5611m7.0m/s-11.5°C0%0hPa0V00:00:0000:00:0000:00:00
WB7NNF2026-09-01 05:38:0047.71127-117.5717440°55km/h5467m5.6m/s-10.4°C0%0hPa0V00:00:0000:00:0000:00:00
WB7NNF2026-09-01 05:37:3647.70893-117.5736222°57km/h5339m4.7m/s-9.3°C0%0hPa0V00:00:0000:00:0000:00:00
WB7NNF2026-09-01 05:37:1247.70695-117.5751452°24km/h5210m4.6m/s-8.3°C0%0hPa0V00:00:0000:00:0000:00:00
WB7NNF2026-09-01 05:36:5247.70511-117.5768421°55km/h5108m5.0m/s-7.6°C0%0hPa0V00:00:0000:00:0000:00:00


GPX KML Map

© wettersonde.net (DO2JMG) - 2026  -  -